Terminal Aerodrome Forecast
Issued by NWS

Home | Current Version | Previous Version | Text Only | Print | Product List | Glossary On
Versions: 1 2 3 4 5 6 7 8 9 10 11 12 13 14
000
FTUS44 KLZK 160500 RRA
TAFPBF
TAF
KPBF 160541Z 1606/1706 00000KT P6SM VCSH SCT050 OVC100
     FM161000 00000KT P6SM SCT020 OVC050
      TEMPO 1610/1614 5SM BR BKN020
     FM161500 03005KT P6SM SCT025 BKN060
     FM161900 04005KT P6SM SCT035 SCT250
     FM170100 04003KT P6SM SCT250=

USA.gov is the U.S. government's official web portal to all federal, state and local government web resources and services.